Main page
METAR-TAF:

METAR-TAF

Airports :

Hua Hin Airport

Hua Hin, Thailand

latitude: 12-35N, longitude: 099-57E, elevation: 5 m

Current weather observation

The report was made 2 hours and 50 minutes ago, at 11:00 UTC
Wind 11 kt from the South/Southeast, varying between Southeast and South/Southwest
Temperature 29°C
Humidity 74%
Pressure 1010 hPa
Visibility 10 km or more
Few clouds at a height of 3000 ft

METAR: VTPH 231100Z 16011KT 140V200 9999 FEW030 29/24 Q1010 NOSIG

Time: 20:50 (13:50 UTC)

Forecast

The report was made 2 hours and 50 minutes ago, at 11:00 UTC
Forecast valid from 23 at 12 UTC to 24 at 12 UTC
Wind 10 kt from the South/Southeast
Visibility 10 km or more
Few clouds at a height of 3000 ft
Becoming
from 23 at 15 UTC to 23 at 17 UTC
Wind 3 kt from the West/Southwest
Becoming
from 24 at 03 UTC to 24 at 05 UTC
Wind 13 kt from the South/Southeast

TAF: VTPH 231100Z 2312/2412 15010KT 9999 FEW030 BECMG 2315/2317 24003KT BECMG 2403/2405 15013KT

Weather observations and forecasts of more than 4000 airports (METAR and TAF reports).

The available stations are represented by yellow and red dots on the map.

Hover mouse over dot to see the name of the station.

Then click to see weather observations and forecasts.

To change the map : click on the green buttons with a black cross to zoom in, on the green button with a dash to zoom out, or on the green arrows for adjacent maps.


METAR-TAF: